Time;durP1;ratioP1;P1;durP2;ratioP2;P2;SDS_P1;SDS_P2;PMS_P1;PMS_P2;Temp;Humidity;BMP_temperature;BMP_pressure;BME280_temperature;BME280_humidity;BME280_pressure;Samples;Min_cycle;Max_cycle;Signal;HPM_P1;HPM_P2
2022/05/11 00:00:43;;;;;;;17.77;12.93;;;18.40;99.90;;;;;;4987600;28;20459;-63
2022/05/11 00:03:09;;;;;;;17.05;12.65;;;18.30;99.90;;;;;;4988849;28;20481;-63
2022/05/11 00:05:35;;;;;;;17.88;11.93;;;18.20;99.90;;;;;;4988354;28;20883;-62
2022/05/11 00:08:02;;;;;;;17.85;13.40;;;18.10;99.90;;;;;;4989166;28;20490;-63
2022/05/11 00:10:27;;;;;;;19.73;13.43;;;18.10;99.90;;;;;;4990096;28;20839;-64
2022/05/11 00:12:53;;;;;;;18.13;13.30;;;18.10;99.90;;;;;;4989294;28;20394;-63
2022/05/11 00:15:22;;;;;;;18.38;12.30;;;18.00;99.90;;;;;;4988637;28;20651;-63
2022/05/11 00:17:48;;;;;;;16.83;12.70;;;17.90;99.90;;;;;;4990293;28;20549;-68
2022/05/11 00:20:16;;;;;;;16.33;12.83;;;17.90;99.90;;;;;;4990036;28;20426;-63
2022/05/11 00:22:42;;;;;;;16.38;12.80;;;17.80;1.00;;;;;;4989869;28;20744;-64
2022/05/11 00:25:14;;;;;;;17.13;13.00;;;17.70;1.00;;;;;;4989998;28;20410;-63
2022/05/11 00:27:39;;;;;;;18.30;13.10;;;17.60;1.00;;;;;;4988707;28;20418;-63
2022/05/11 00:30:06;;;;;;;19.52;13.40;;;17.40;99.90;;;;;;4990205;28;20540;-62
2022/05/11 00:32:32;;;;;;;17.25;12.75;;;17.40;1.00;;;;;;4987282;28;20375;-63
2022/05/11 00:34:58;;;;;;;18.92;12.40;;;17.30;38.40;;;;;;4990378;28;20398;-63
2022/05/11 00:37:24;;;;;;;17.02;12.65;;;17.20;99.90;;;;;;4990456;28;20474;-62
2022/05/11 00:39:49;;;;;;;17.13;12.80;;;17.20;99.90;;;;;;4996037;28;20406;-63
2022/05/11 00:42:15;;;;;;;18.10;12.40;;;17.10;99.90;;;;;;4992269;28;20923;-63
2022/05/11 00:44:42;;;;;;;17.90;11.85;;;17.00;1.00;;;;;;4993720;28;20402;-61
2022/05/11 00:47:19;;;;;;;16.20;11.73;;;17.00;1.00;;;;;;4993712;28;20764;-63
2022/05/11 00:49:50;;;;;;;15.82;11.95;;;17.00;99.90;;;;;;4992780;28;20383;-63
2022/05/11 00:52:23;;;;;;;16.00;11.00;;;17.00;99.90;;;;;;4990941;28;20394;-63
2022/05/11 00:55:00;;;;;;;16.60;10.60;;;17.00;99.90;;;;;;4994288;28;20440;-63
2022/05/11 00:57:47;;;;;;;15.05;11.15;;;17.10;99.90;;;;;;4991865;28;20505;-62
2022/05/11 01:00:13;;;;;;;16.48;10.93;;;17.10;99.90;;;;;;4992186;28;20407;-63
2022/05/11 01:02:44;;;;;;;15.63;11.48;;;17.10;99.90;;;;;;4993160;28;20457;-63
2022/05/11 01:05:10;;;;;;;15.68;11.15;;;17.20;99.90;;;;;;4992461;28;20422;-64
2022/05/11 01:07:36;;;;;;;16.85;11.55;;;17.10;99.90;;;;;;4991943;28;20469;-63
2022/05/11 01:10:07;;;;;;;15.63;11.73;;;17.20;99.90;;;;;;4993955;28;20414;-57
2022/05/11 01:12:38;;;;;;;18.20;11.50;;;17.10;99.90;;;;;;4992062;28;20880;-63
2022/05/11 01:15:05;;;;;;;15.55;10.60;;;17.00;1.00;;;;;;4991290;28;20379;-56
2022/05/11 01:17:33;;;;;;;14.95;11.00;;;16.80;99.90;;;;;;4992083;28;20394;-62
2022/05/11 01:19:59;;;;;;;14.38;10.52;;;16.80;99.90;;;;;;4992073;28;20466;-64
2022/05/11 01:22:50;;;;;;;18.00;11.07;;;16.80;1.00;;;;;;4992498;28;20887;-63
2022/05/11 01:25:17;;;;;;;15.00;10.68;;;16.80;1.00;;;;;;4990468;28;20410;-63
2022/05/11 01:27:45;;;;;;;15.48;10.20;;;16.80;1.00;;;;;;4996877;28;20468;-63
2022/05/11 01:30:14;;;;;;;14.23;10.00;;;16.70;62.00;;;;;;4992676;28;20403;-63
2022/05/11 01:32:45;;;;;;;15.82;10.60;;;16.70;99.90;;;;;;4991853;28;20422;-63
2022/05/11 01:35:44;;;;;;;15.40;10.20;;;16.70;1.00;;;;;;4991029;28;20471;-63
2022/05/11 01:38:25;;;;;;;16.92;10.98;;;16.70;1.00;;;;;;4990400;28;20406;-63
2022/05/11 01:40:50;;;;;;;14.55;9.73;;;16.70;1.00;;;;;;4992911;28;20505;-63
2022/05/11 01:43:22;;;;;;;18.35;10.48;;;16.60;1.00;;;;;;4992033;28;20489;-64
2022/05/11 01:45:48;;;;;;;13.90;9.50;;;16.60;1.00;;;;;;4991777;28;20786;-64
2022/05/11 01:48:14;;;;;;;16.55;10.10;;;17.10;1.00;;;;;;4990967;28;20513;-59
2022/05/11 01:50:40;;;;;;;16.58;10.68;;;16.60;1.00;;;;;;4972485;28;20388;-63
2022/05/11 01:53:06;;;;;;;15.63;10.43;;;16.50;85.80;;;;;;4984432;28;20404;-56
2022/05/11 01:55:32;;;;;;;13.63;9.95;;;16.40;99.90;;;;;;5010951;28;20399;-63
2022/05/11 01:57:58;;;;;;;14.13;9.53;;;16.40;99.90;;;;;;5006431;28;20436;-62
2022/05/11 02:00:23;;;;;;;15.32;10.25;;;16.50;99.90;;;;;;4990970;28;20411;-63
2022/05/11 02:02:50;;;;;;;14.53;9.73;;;16.40;1.00;;;;;;4996028;28;20397;-63
2022/05/11 02:08:00;;;;;;;14.50;10.57;;;16.40;99.90;;;;;;4991344;28;20981;-63
2022/05/11 02:10:26;;;;;;;14.20;10.10;;;16.40;35.30;;;;;;5002383;28;20404;-63
2022/05/11 02:12:53;;;;;;;13.35;9.68;;;16.40;1.00;;;;;;5011135;28;20443;-64
2022/05/11 02:15:20;;;;;;;16.40;9.80;;;16.50;1.00;;;;;;5008517;28;20480;-64
2022/05/11 02:17:46;;;;;;;13.23;9.10;;;16.50;99.90;;;;;;5011034;28;20396;-63
2022/05/11 02:20:14;;;;;;;13.20;9.60;;;16.50;99.90;;;;;;4999945;28;20895;-63
2022/05/11 02:22:40;;;;;;;12.75;8.93;;;16.50;99.90;;;;;;4991379;28;20443;-63
2022/05/11 02:25:07;;;;;;;14.27;10.10;;;16.40;99.90;;;;;;4995595;28;20393;-56
2022/05/11 02:27:33;;;;;;;14.70;9.55;;;16.40;99.90;;;;;;5010787;28;20419;-61
2022/05/11 02:30:00;;;;;;;13.13;9.50;;;16.40;99.90;;;;;;5002097;28;20764;-63
2022/05/11 02:32:26;;;;;;;15.15;9.85;;;16.40;99.90;;;;;;4990335;28;20393;-64
2022/05/11 02:37:37;;;;;;;14.10;10.00;;;16.60;1.00;;;;;;5010504;28;20412;-63
2022/05/11 02:40:05;;;;;;;13.40;9.10;;;16.50;1.00;;;;;;5001490;28;20497;-56
2022/05/11 02:42:31;;;;;;;13.48;9.23;;;16.40;1.00;;;;;;4991126;28;20390;-63
2022/05/11 02:44:56;;;;;;;13.38;9.40;;;16.60;1.00;;;;;;4991547;28;20453;-63
2022/05/11 02:47:22;;;;;;;14.20;9.20;;;16.40;1.00;;;;;;4989978;28;20512;-63
2022/05/11 02:49:47;;;;;;;12.90;8.60;;;16.50;1.00;;;;;;4990841;28;20409;-62
2022/05/11 02:52:14;;;;;;;13.53;9.53;;;16.50;1.00;;;;;;4991150;28;20864;-63
2022/05/11 02:54:41;;;;;;;15.02;9.20;;;16.50;1.00;;;;;;4990732;28;20383;-63
2022/05/11 02:57:07;;;;;;;13.70;9.43;;;16.40;67.70;;;;;;4991165;28;20395;-60
2022/05/11 02:59:33;;;;;;;13.07;8.60;;;16.40;99.90;;;;;;4990199;28;20406;-63
2022/05/11 03:01:58;;;;;;;13.70;9.13;;;16.40;99.90;;;;;;4997584;28;20795;-63
2022/05/11 03:04:25;;;;;;;14.63;9.40;;;16.30;99.90;;;;;;5001699;28;20382;-63
2022/05/11 03:06:50;;;;;;;16.60;9.93;;;16.30;99.90;;;;;;4990723;28;20430;-63
2022/05/11 03:09:17;;;;;;;12.80;9.00;;;16.40;99.90;;;;;;4994576;28;20464;-63
2022/05/11 03:11:44;;;;;;;13.03;9.00;;;16.30;72.50;;;;;;5010188;28;20384;-63
2022/05/11 03:14:10;;;;;;;13.65;8.57;;;16.40;99.90;;;;;;5007472;28;20399;-63
2022/05/11 03:16:36;;;;;;;14.37;9.00;;;16.20;99.90;;;;;;5009878;28;20389;-62
2022/05/11 03:19:03;;;;;;;13.80;9.05;;;16.20;99.90;;;;;;5008645;28;20394;-63
2022/05/11 03:21:28;;;;;;;12.10;8.00;;;16.20;99.90;;;;;;5008043;28;20393;-63
2022/05/11 03:23:55;;;;;;;14.25;8.70;;;16.30;99.90;;;;;;5008280;28;20422;-63
2022/05/11 03:26:21;;;;;;;12.77;8.70;;;16.30;99.90;;;;;;5009342;28;20413;-63
2022/05/11 03:28:47;;;;;;;13.07;8.70;;;16.20;99.90;;;;;;5008121;28;20420;-62
2022/05/11 03:31:12;;;;;;;11.90;8.40;;;16.20;99.90;;;;;;4999213;28;20406;-63
2022/05/11 03:36:22;;;;;;;13.48;9.05;;;16.30;99.90;;;;;;4988887;28;20870;-63
2022/05/11 03:38:48;;;;;;;11.93;7.78;;;16.30;99.90;;;;;;4991437;28;20402;-62
2022/05/11 03:41:14;;;;;;;12.68;8.43;;;16.20;99.90;;;;;;4989105;28;20462;-62
2022/05/11 03:43:39;;;;;;;13.10;8.67;;;16.20;99.90;;;;;;4990484;28;20379;-62
2022/05/11 03:46:05;;;;;;;13.90;8.48;;;16.20;99.90;;;;;;4989873;28;20402;-56
2022/05/11 03:48:30;;;;;;;13.07;8.68;;;16.20;99.90;;;;;;4971787;28;20415;-63
2022/05/11 03:50:56;;;;;;;14.00;8.40;;;16.30;99.90;;;;;;4990939;28;20409;-63
2022/05/11 03:53:22;;;;;;;12.55;8.60;;;16.40;28.80;;;;;;4988802;28;20884;-60
2022/05/11 03:55:48;;;;;;;12.70;8.98;;;16.30;99.90;;;;;;4990632;28;20496;-63
2022/05/11 03:58:14;;;;;;;14.00;9.20;;;16.30;99.90;;;;;;4989055;28;20876;-63
2022/05/11 04:00:41;;;;;;;13.17;8.77;;;16.30;99.90;;;;;;4990694;28;20453;-63
2022/05/11 04:03:07;;;;;;;14.52;8.55;;;16.40;99.90;;;;;;4989000;28;20880;-56
2022/05/11 04:05:33;;;;;;;13.53;8.70;;;16.40;40.40;;;;;;4990810;28;20387;-62
2022/05/11 04:07:59;;;;;;;12.98;8.38;;;16.30;1.00;;;;;;4989282;28;20426;-62
2022/05/11 04:10:25;;;;;;;12.98;8.40;;;16.30;99.90;;;;;;4989023;28;20534;-63
2022/05/11 04:12:51;;;;;;;13.63;8.20;;;16.20;99.90;;;;;;4992576;28;20395;-63
2022/05/11 04:15:17;;;;;;;12.38;8.40;;;16.20;99.90;;;;;;4992718;28;20445;-62
2022/05/11 04:17:43;;;;;;;13.90;8.65;;;16.30;99.90;;;;;;4993385;28;20423;-63
2022/05/11 04:20:12;;;;;;;12.95;8.32;;;16.30;99.90;;;;;;4990782;28;20445;-61
2022/05/11 04:22:38;;;;;;;13.88;8.40;;;16.40;99.90;;;;;;4993030;28;20488;-62
2022/05/11 04:25:04;;;;;;;11.45;8.07;;;16.30;99.90;;;;;;4995569;28;20395;-62
2022/05/11 04:27:30;;;;;;;14.18;8.30;;;17.20;99.90;;;;;;4992204;28;20410;-62
2022/05/11 04:29:55;;;;;;;15.27;8.50;;;16.40;99.90;;;;;;4995703;28;20496;-62
2022/05/11 04:32:21;;;;;;;13.37;8.20;;;16.40;99.90;;;;;;4992175;28;20401;-63
2022/05/11 04:34:46;;;;;;;14.52;9.00;;;16.50;99.90;;;;;;4993243;28;20401;-63
2022/05/11 04:37:13;;;;;;;11.75;8.10;;;16.50;1.00;;;;;;4991898;28;20391;-62
2022/05/11 04:39:39;;;;;;;12.35;8.40;;;16.40;1.00;;;;;;5007770;28;20412;-65
2022/05/11 04:42:07;;;;;;;12.30;8.40;;;16.70;1.00;;;;;;4996596;28;20485;-59
2022/05/11 04:44:32;;;;;;;13.52;8.25;;;16.60;1.00;;;;;;4991338;28;20406;-62
2022/05/11 04:46:58;;;;;;;12.30;8.30;;;16.90;1.00;;;;;;4973479;28;20443;-64
2022/05/11 04:49:24;;;;;;;13.10;8.25;;;16.90;1.00;;;;;;5000220;28;20519;-64
2022/05/11 04:51:58;;;;;;;11.82;7.85;;;17.00;99.90;;;;;;5012619;28;20728;-63
2022/05/11 04:54:23;;;;;;;13.43;8.50;;;17.20;99.90;;;;;;5009980;28;20416;-62
2022/05/11 04:56:49;;;;;;;11.20;7.55;;;17.30;99.90;;;;;;5012495;28;20385;-62
2022/05/11 04:59:15;;;;;;;11.80;7.90;;;17.50;99.90;;;;;;5010045;28;20408;-62
2022/05/11 05:01:40;;;;;;;12.80;8.27;;;17.80;1.00;;;;;;5002140;28;20426;-62
2022/05/11 05:04:06;;;;;;;12.98;7.32;;;17.90;1.00;;;;;;4991519;28;20413;-57
2022/05/11 05:06:33;;;;;;;11.32;7.95;;;17.80;1.00;;;;;;4992842;28;20403;-61
2022/05/11 05:09:04;;;;;;;14.10;8.30;;;18.30;1.00;;;;;;4991778;28;20932;-62
2022/05/11 05:11:30;;;;;;;12.82;8.10;;;18.60;99.90;;;;;;4992189;28;20982;-62
2022/05/11 05:13:56;;;;;;;12.70;7.65;;;18.80;99.90;;;;;;4991510;28;20809;-63
2022/05/11 05:16:22;;;;;;;12.18;7.60;;;19.40;99.90;;;;;;4998298;28;20399;-62
2022/05/11 05:18:48;;;;;;;10.43;6.70;;;20.40;64.90;;;;;;4997496;28;20426;-63
2022/05/11 05:21:13;;;;;;;11.20;7.43;;;21.40;1.00;;;;;;4991609;28;20934;-63
2022/05/11 05:23:39;;;;;;;12.10;7.25;;;22.00;1.00;;;;;;4992183;28;20393;-63
2022/05/11 05:26:04;;;;;;;10.65;6.75;;;22.40;1.00;;;;;;4999772;28;20416;-63
2022/05/11 05:31:17;;;;;;;9.85;6.40;;;23.80;1.00;;;;;;5001413;28;20879;-60
2022/05/11 05:33:43;;;;;;;10.50;6.80;;;24.10;1.00;;;;;;4991729;28;20848;-63
2022/05/11 05:36:10;;;;;;;10.60;6.40;;;24.70;1.00;;;;;;4992594;28;20437;-56
2022/05/11 05:38:38;;;;;;;10.77;6.85;;;24.90;1.00;;;;;;4992520;28;20465;-63
2022/05/11 05:41:08;;;;;;;11.90;7.10;;;24.80;1.00;;;;;;4992433;28;20442;-62
2022/05/11 05:43:34;;;;;;;11.43;7.00;;;25.10;1.00;;;;;;4985508;28;20439;-61
2022/05/11 05:46:00;;;;;;;11.45;7.13;;;24.50;1.00;;;;;;4976211;28;20763;-58
2022/05/11 05:48:26;;;;;;;10.80;7.03;;;24.70;1.00;;;;;;5006500;28;20827;-61
2022/05/11 05:50:52;;;;;;;12.23;7.22;;;25.10;1.00;;;;;;4995853;28;20390;-64
2022/05/11 05:53:21;;;;;;;12.52;6.47;;;25.50;1.00;;;;;;4989835;28;20807;-62
2022/05/11 05:55:50;;;;;;;11.68;6.78;;;25.80;1.00;;;;;;4990701;28;20414;-63
2022/05/11 05:58:16;;;;;;;10.57;6.70;;;26.00;23.20;;;;;;4989772;28;20746;-65
2022/05/11 06:00:43;;;;;;;10.30;6.80;;;26.80;99.90;;;;;;4990518;28;20406;-64
2022/05/11 06:03:11;;;;;;;10.73;7.10;;;;;;;;;;4990270;28;20391;-59
2022/05/11 06:05:37;;;;;;;9.45;6.10;;;27.50;18.10;;;;;;4985119;28;20465;-64
2022/05/11 06:08:03;;;;;;;10.90;6.60;;;27.10;55.40;;;;;;4986107;28;20431;-62
2022/05/11 06:10:29;;;;;;;10.73;6.85;;;27.40;99.90;;;;;;4992659;28;20400;-63
2022/05/11 06:12:54;;;;;;;10.68;5.88;;;27.40;1.00;;;;;;5008640;28;20760;-62
2022/05/11 06:15:20;;;;;;;11.18;6.00;;;26.50;1.00;;;;;;4988733;28;20478;-63
2022/05/11 06:17:46;;;;;;;10.48;5.82;;;26.00;1.00;;;;;;4989974;28;20402;-63
2022/05/11 06:20:13;;;;;;;9.67;6.13;;;27.00;1.00;;;;;;4986335;28;20484;-58
2022/05/11 06:22:38;;;;;;;9.93;6.30;;;27.50;1.00;;;;;;4989016;28;20520;-63
2022/05/11 06:25:05;;;;;;;10.10;6.47;;;27.30;1.00;;;;;;4989479;28;20403;-63
2022/05/11 06:27:31;;;;;;;9.52;6.45;;;27.30;1.00;;;;;;4989172;28;20399;-64
2022/05/11 06:30:00;;;;;;;10.60;5.70;;;27.60;1.00;;;;;;4988390;28;20493;-64
2022/05/11 06:32:26;;;;;;;9.93;6.72;;;28.10;1.00;;;;;;4988970;28;20462;-64
2022/05/11 06:34:53;;;;;;;10.90;7.20;;;28.50;1.00;;;;;;4989320;28;20515;-65
2022/05/11 06:37:20;;;;;;;10.45;6.55;;;28.90;1.00;;;;;;4989074;28;20760;-65
2022/05/11 06:39:45;;;;;;;9.50;6.67;;;28.30;1.00;;;;;;4990360;28;20399;-63
2022/05/11 06:42:13;;;;;;;10.10;7.10;;;28.30;1.00;;;;;;4989472;28;20398;-59
2022/05/11 06:44:39;;;;;;;10.65;5.50;;;28.00;1.00;;;;;;4989460;28;20474;-64
2022/05/11 06:47:06;;;;;;;10.63;6.57;;;27.80;6.30;;;;;;4990531;28;20404;-63
2022/05/11 06:49:33;;;;;;;10.15;6.28;;;26.80;12.00;;;;;;4989214;28;20502;-63
2022/05/11 06:51:59;;;;;;;10.60;6.93;;;27.00;25.10;;;;;;4989794;28;20425;-65
2022/05/11 06:59:55;;;;;;;8.90;6.27;;;;;;;;;;4988329;28;20902;-64
2022/05/11 07:02:21;;;;;;;10.80;6.10;;;28.60;78.60;;;;;;4988415;28;20852;-63
2022/05/11 07:04:48;;;;;;;10.40;6.50;;;28.20;41.30;;;;;;4989511;28;20405;-65
2022/05/11 07:07:14;;;;;;;10.67;6.73;;;;;;;;;;4987481;28;20394;-58
2022/05/11 07:09:40;;;;;;;9.60;6.60;;;;;;;;;;4988342;28;20557;-59
2022/05/11 07:12:25;;;;;;;9.10;6.20;;;;;;;;;;4989907;28;20395;-64
2022/05/11 07:14:53;;;;;;;9.02;6.03;;;;;;;;;;4988608;28;20379;-65
2022/05/11 07:17:35;;;;;;;10.07;6.10;;;;;;;;;;4988394;28;20401;-66
2022/05/11 07:20:04;;;;;;;8.52;6.50;;;;;;;;;;4990564;28;20401;-64
2022/05/11 07:22:30;;;;;;;8.60;6.40;;;;;;;;;;4990058;28;20371;-65
2022/05/11 07:24:56;;;;;;;9.27;6.60;;;;;;;;;;4990339;28;20378;-65
2022/05/11 07:27:22;;;;;;;11.80;6.72;;;;;;;;;;4989452;28;20382;-64
2022/05/11 07:29:49;;;;;;;10.80;7.35;;;;;;;;;;4989698;28;20852;-61
2022/05/11 07:32:15;;;;;;;10.20;6.20;;;;;;;;;;4989460;28;20369;-65
2022/05/11 07:34:41;;;;;;;9.30;6.70;;;30.10;1.00;;;;;;4989932;28;20371;-65
2022/05/11 07:37:06;;;;;;;8.80;6.80;;;29.90;1.00;;;;;;4989556;28;20478;-61
2022/05/11 07:39:32;;;;;;;10.80;7.50;;;30.00;1.00;;;;;;4989389;28;20379;-65
2022/05/11 07:41:59;;;;;;;9.40;7.20;;;30.60;1.00;;;;;;4990076;28;20402;-65
2022/05/11 07:44:25;;;;;;;10.20;6.50;;;30.80;1.00;;;;;;4989104;28;20472;-67
2022/05/11 07:46:51;;;;;;;8.95;6.95;;;31.10;1.00;;;;;;4992986;28;20389;-66
2022/05/11 07:49:18;;;;;;;9.30;6.30;;;29.60;1.00;;;;;;4992101;28;20429;-65
2022/05/11 07:51:45;;;;;;;10.20;6.68;;;30.00;1.00;;;;;;4992936;28;20390;-63
2022/05/11 07:54:12;;;;;;;10.40;7.00;;;30.30;1.00;;;;;;4993456;28;20382;-59
2022/05/11 08:02:07;;;;;;;9.17;5.80;;;30.80;1.00;;;;;;4992178;28;20449;-66
2022/05/11 08:04:32;;;;;;;9.60;5.80;;;30.60;1.00;;;;;;4992433;28;20795;-63
2022/05/11 08:06:59;;;;;;;9.10;5.57;;;30.80;1.00;;;;;;4993001;28;20449;-65
2022/05/11 08:09:24;;;;;;;10.57;5.20;;;31.60;1.00;;;;;;4990475;28;20465;-66
2022/05/11 08:11:52;;;;;;;8.13;5.32;;;32.50;99.90;;;;;;4992225;28;20898;-65
2022/05/11 08:14:18;;;;;;;8.10;5.28;;;32.90;99.90;;;;;;4991232;28;20803;-67
2022/05/11 08:16:44;;;;;;;7.97;4.97;;;33.10;99.90;;;;;;4992881;28;20395;-67
2022/05/11 08:19:10;;;;;;;8.00;4.72;;;31.80;99.90;;;;;;4991967;28;20741;-61
2022/05/11 08:21:36;;;;;;;10.10;5.30;;;31.50;99.90;;;;;;4992332;28;20438;-65
2022/05/11 08:24:02;;;;;;;8.73;4.90;;;32.20;99.90;;;;;;4993316;28;20860;-66
2022/05/11 08:26:28;;;;;;;8.73;5.00;;;32.90;99.90;;;;;;4992664;28;20390;-67
2022/05/11 08:28:53;;;;;;;9.40;5.27;;;32.20;99.90;;;;;;4992516;28;20541;-66
2022/05/11 08:34:04;;;;;;;9.02;4.50;;;32.50;99.90;;;;;;4992605;28;20433;-65
2022/05/11 08:36:30;;;;;;;9.55;5.30;;;31.90;99.90;;;;;;4990914;28;20560;-66
2022/05/11 08:38:58;;;;;;;13.15;4.90;;;33.20;99.90;;;;;;4992740;28;20393;-65
2022/05/11 08:41:45;;;;;;;7.90;5.28;;;34.20;99.90;;;;;;4992118;28;20445;-65
2022/05/11 08:44:14;;;;;;;8.65;4.70;;;34.20;99.90;;;;;;4983297;28;20407;-60
2022/05/11 08:46:49;;;;;;;7.47;4.53;;;32.90;99.90;;;;;;4973532;28;20395;-66
2022/05/11 08:49:50;;;;;;;9.82;4.30;;;33.30;99.90;;;;;;4981063;28;20435;-65
2022/05/11 08:52:23;;;;;;;9.88;4.72;;;33.30;99.90;;;;;;4985352;28;20402;-63
2022/05/11 08:54:54;;;;;;;11.07;6.03;;;32.90;99.90;;;;;;4989902;28;20398;-66
2022/05/11 08:57:23;;;;;;;12.23;7.32;;;32.10;99.90;;;;;;4991198;28;20466;-65
2022/05/11 08:59:52;;;;;;;9.27;7.85;;;32.30;99.90;;;;;;4991788;28;20390;-65
2022/05/11 09:02:56;;;;;;;10.00;8.35;;;32.60;99.90;;;;;;4990335;28;20832;-66
2022/05/11 09:05:28;;;;;;;15.73;4.90;;;32.70;99.90;;;;;;4990779;28;20426;-66
2022/05/11 09:07:55;;;;;;;10.03;5.43;;;33.20;99.90;;;;;;4992106;28;20430;-65
2022/05/11 09:10:40;;;;;;;9.80;5.30;;;33.30;99.90;;;;;;4990767;28;20395;-65
2022/05/11 09:13:09;;;;;;;8.43;4.70;;;34.00;99.90;;;;;;4991631;28;20494;-66
2022/05/11 09:15:53;;;;;;;8.68;5.60;;;34.30;99.90;;;;;;4992522;28;20391;-66
2022/05/11 09:18:20;;;;;;;8.90;5.03;;;34.90;99.90;;;;;;4991782;28;20461;-65
2022/05/11 09:20:52;;;;;;;9.93;5.30;;;33.80;99.90;;;;;;4992477;28;20876;-66
2022/05/11 09:23:37;;;;;;;8.50;5.13;;;33.80;99.90;;;;;;4991522;28;20383;-64
2022/05/11 09:26:08;;;;;;;10.07;5.05;;;34.40;99.90;;;;;;4992794;28;20874;-66
2022/05/11 09:28:36;;;;;;;8.68;5.30;;;33.90;99.90;;;;;;4991177;28;20453;-67
2022/05/11 09:31:06;;;;;;;7.70;5.00;;;33.90;99.90;;;;;;4991136;28;20394;-67
2022/05/11 09:33:35;;;;;;;8.80;5.15;;;33.60;99.90;;;;;;4990763;28;20408;-66
2022/05/11 09:36:03;;;;;;;11.32;5.70;;;32.90;99.90;;;;;;4975195;28;20391;-65
2022/05/11 09:38:36;;;;;;;9.07;5.60;;;33.10;99.90;;;;;;4989541;28;20888;-67
2022/05/11 09:41:21;;;;;;;8.20;5.00;;;34.20;99.90;;;;;;4991788;28;20395;-67
2022/05/11 09:43:52;;;;;;;10.43;5.40;;;34.60;99.90;;;;;;4989397;28;20433;-66
2022/05/11 09:46:27;;;;;;;8.60;5.63;;;33.80;99.90;;;;;;4971613;28;20415;-67
2022/05/11 09:49:05;;;;;;;8.80;6.20;;;34.40;99.90;;;;;;4971085;28;20412;-66
2022/05/11 09:51:40;;;;;;;9.68;5.75;;;33.50;99.90;;;;;;4970527;28;20416;-66
2022/05/11 09:54:18;;;;;;;10.00;5.90;;;32.60;99.90;;;;;;4986360;28;20521;-67
2022/05/11 09:56:52;;;;;;;9.15;5.40;;;33.00;99.90;;;;;;4989534;28;20386;-67
2022/05/11 09:59:29;;;;;;;11.30;5.60;;;33.20;99.90;;;;;;4987470;28;20394;-67
2022/05/11 10:02:02;;;;;;;12.63;5.00;;;33.30;99.90;;;;;;4990882;28;20429;-64
2022/05/11 10:04:44;;;;;;;8.88;5.20;;;33.10;99.90;;;;;;4990606;28;20400;-67
2022/05/11 10:07:15;;;;;;;11.00;5.50;;;33.10;99.90;;;;;;4989950;28;20430;-61
2022/05/11 10:09:52;;;;;;;9.10;5.70;;;33.10;99.90;;;;;;4989665;28;20441;-65
2022/05/11 10:12:23;;;;;;;10.90;5.30;;;33.30;99.90;;;;;;4989659;28;20406;-64
2022/05/11 10:23:27;;;;;;;10.07;6.10;;;33.80;99.90;;;;;;4991443;28;20503;-59
2022/05/11 10:26:03;;;;;;;10.68;9.35;;;33.20;99.90;;;;;;4993978;28;20931;-68
2022/05/11 10:28:34;;;;;;;10.80;8.70;;;32.40;99.90;;;;;;4998632;28;20512;-66
2022/05/11 10:31:05;;;;;;;11.17;8.33;;;32.00;99.90;;;;;;4999681;28;20459;-68
2022/05/11 10:33:41;;;;;;;11.48;8.95;;;31.10;99.90;;;;;;4997101;28;20457;-67
2022/05/11 10:36:22;;;;;;;12.07;8.93;;;30.40;99.90;;;;;;4988510;28;20470;-67
2022/05/11 10:38:58;;;;;;;11.07;9.10;;;30.30;99.90;;;;;;4988209;28;20436;-68
2022/05/11 10:41:33;;;;;;;10.05;9.05;;;30.30;99.90;;;;;;4986210;28;20479;-68
2022/05/11 10:44:38;;;;;;;13.05;9.88;;;30.10;99.90;;;;;;4988859;28;20500;-66
2022/05/11 10:47:21;;;;;;;11.52;9.40;;;30.30;99.90;;;;;;4965347;28;20811;-67
2022/05/11 10:50:14;;;;;;;10.10;7.70;;;30.40;99.90;;;;;;4987669;28;20399;-67
2022/05/11 10:52:58;;;;;;;9.68;8.55;;;30.00;99.90;;;;;;4988518;28;20406;-67
2022/05/11 10:55:48;;;;;;;14.53;7.93;;;29.80;99.90;;;;;;4990007;28;20863;-68
2022/05/11 10:59:02;;;;;;;9.55;8.27;;;29.80;99.90;;;;;;4997508;28;20495;-68
2022/05/11 11:01:45;;;;;;;11.40;7.85;;;29.70;99.90;;;;;;4998156;28;20401;-68
2022/05/11 11:04:39;;;;;;;9.73;8.38;;;29.90;99.90;;;;;;4988463;28;20407;-61
2022/05/11 11:07:14;;;;;;;11.27;8.25;;;30.50;99.90;;;;;;4988619;28;20462;-68
2022/05/11 11:10:04;;;;;;;9.88;8.20;;;30.10;99.90;;;;;;4987303;28;20521;-68
2022/05/11 11:12:54;;;;;;;9.20;8.00;;;30.00;99.90;;;;;;4988546;28;20387;-68
2022/05/11 11:15:26;;;;;;;9.45;7.03;;;30.10;99.90;;;;;;4988880;28;20399;-67
2022/05/11 11:17:54;;;;;;;10.02;8.43;;;30.70;99.90;;;;;;4989508;28;20439;-68
2022/05/11 11:20:21;;;;;;;10.13;7.35;;;30.80;99.90;;;;;;4988679;28;20417;-68
2022/05/11 11:23:02;;;;;;;10.95;8.00;;;30.70;99.90;;;;;;4971815;28;20421;-65
2022/05/11 11:25:41;;;;;;;11.52;8.00;;;30.20;99.90;;;;;;4988580;28;21187;-68
2022/05/11 11:28:11;;;;;;;9.50;7.20;;;30.40;99.90;;;;;;4989616;28;20469;-68
2022/05/11 11:30:39;;;;;;;8.50;6.28;;;30.90;99.90;;;;;;4989196;28;20391;-67
2022/05/11 11:33:11;;;;;;;11.00;7.57;;;31.00;99.90;;;;;;4988722;28;20389;-64
2022/05/11 11:36:00;;;;;;;10.13;7.57;;;31.40;99.90;;;;;;4988740;28;20796;-65
2022/05/11 11:38:30;;;;;;;8.05;7.25;;;30.80;99.90;;;;;;4981227;28;20418;-65
2022/05/11 11:41:12;;;;;;;11.03;6.93;;;31.00;99.90;;;;;;4990021;28;20386;-66
2022/05/11 11:43:44;;;;;;;9.40;7.20;;;30.70;99.90;;;;;;4988188;28;20406;-65
2022/05/11 11:46:38;;;;;;;11.82;7.88;;;30.70;99.90;;;;;;4973320;28;20422;-58
2022/05/11 11:49:19;;;;;;;9.85;7.90;;;30.80;99.90;;;;;;4988850;28;20420;-66
2022/05/11 11:51:51;;;;;;;9.18;7.70;;;30.50;99.90;;;;;;4988751;28;20876;-65
2022/05/11 11:54:27;;;;;;;9.48;7.20;;;30.80;99.90;;;;;;4988899;28;20390;-65
2022/05/11 11:56:54;;;;;;;10.75;7.95;;;30.90;99.90;;;;;;4989433;28;20441;-65
2022/05/11 11:59:23;;;;;;;8.75;7.45;;;30.60;99.90;;;;;;4988283;28;20760;-66
2022/05/11 12:01:52;;;;;;;9.07;7.30;;;30.30;99.90;;;;;;4989242;28;20858;-65
2022/05/11 12:04:41;;;;;;;8.30;6.82;;;30.10;99.90;;;;;;4987184;28;20609;-64
2022/05/11 12:16:03;;;;;;;8.50;6.88;;;31.00;99.90;;;;;;4989921;28;20737;-65
2022/05/11 12:18:32;;;;;;;8.53;6.77;;;31.10;99.90;;;;;;4987815;28;20402;-65
2022/05/11 12:21:00;;;;;;;9.30;7.10;;;30.90;99.90;;;;;;4989094;28;20386;-66
2022/05/11 12:23:37;;;;;;;10.05;7.30;;;30.80;99.90;;;;;;4988484;28;20379;-65
2022/05/11 12:26:08;;;;;;;11.75;6.82;;;31.00;99.90;;;;;;4987540;28;20391;-65
2022/05/11 12:28:44;;;;;;;10.82;8.07;;;30.60;99.90;;;;;;4988457;28;20505;-65
2022/05/11 12:31:26;;;;;;;8.80;7.22;;;30.40;99.90;;;;;;4988912;28;20856;-58
2022/05/11 12:33:55;;;;;;;11.75;7.88;;;30.10;99.90;;;;;;4991391;28;20389;-65
2022/05/11 12:36:38;;;;;;;9.20;8.30;;;30.40;99.90;;;;;;4990042;28;20682;-65
2022/05/11 12:39:04;;;;;;;9.35;8.00;;;30.40;99.90;;;;;;4990657;28;20434;-67
2022/05/11 12:41:31;;;;;;;9.00;7.37;;;30.40;99.90;;;;;;4992360;28;20395;-64
2022/05/11 12:43:58;;;;;;;8.82;6.43;;;30.70;99.90;;;;;;4975525;28;20402;-65
2022/05/11 12:46:24;;;;;;;7.95;6.45;;;30.70;99.90;;;;;;4992840;28;20650;-64
2022/05/11 12:48:55;;;;;;;9.53;7.60;;;30.60;99.90;;;;;;4993136;28;20874;-66
2022/05/11 12:51:40;;;;;;;8.40;7.05;;;30.80;99.90;;;;;;4990748;28;20406;-65
2022/05/11 12:54:09;;;;;;;8.93;6.90;;;30.60;99.90;;;;;;4993221;28;20404;-64
2022/05/11 12:56:41;;;;;;;8.25;6.22;;;30.40;99.90;;;;;;4991981;28;20452;-65
2022/05/11 12:59:33;;;;;;;10.65;6.80;;;30.70;99.90;;;;;;4991897;28;20406;-65
2022/05/11 13:02:23;;;;;;;10.63;7.53;;;30.50;99.90;;;;;;4990512;28;20936;-64
2022/05/11 13:04:55;;;;;;;10.98;6.95;;;30.60;99.90;;;;;;4992518;28;20395;-65
2022/05/11 13:07:33;;;;;;;8.52;6.60;;;30.80;99.90;;;;;;4991648;28;20382;-66
2022/05/11 13:10:00;;;;;;;10.20;6.30;;;30.90;99.90;;;;;;4992084;28;20959;-62
2022/05/11 13:12:27;;;;;;;12.52;6.93;;;30.80;99.90;;;;;;4991529;28;20466;-62
2022/05/11 13:14:57;;;;;;;9.33;7.10;;;30.40;99.90;;;;;;4992168;28;20409;-64
2022/05/11 13:17:35;;;;;;;9.63;7.50;;;30.40;99.90;;;;;;4991547;28;20382;-65
2022/05/11 13:20:06;;;;;;;9.60;7.72;;;30.40;99.90;;;;;;4992441;28;20466;-59
2022/05/11 13:22:32;;;;;;;9.60;7.40;;;30.30;99.90;;;;;;4990744;28;20488;-65
2022/05/11 13:25:00;;;;;;;7.78;6.72;;;30.50;99.90;;;;;;4991836;28;20534;-65
2022/05/11 13:27:35;;;;;;;9.70;7.45;;;30.80;99.90;;;;;;4991216;28;20865;-66
2022/05/11 13:30:33;;;;;;;8.80;5.80;;;30.90;99.90;;;;;;4992310;28;20490;-65
2022/05/11 13:33:03;;;;;;;9.50;6.77;;;31.10;99.90;;;;;;4991349;28;20852;-66
2022/05/11 13:35:31;;;;;;;8.20;7.13;;;31.20;99.90;;;;;;4991397;28;20477;-64
2022/05/11 13:38:13;;;;;;;9.20;6.63;;;31.20;99.90;;;;;;4992320;28;20462;-64
2022/05/11 13:41:03;;;;;;;8.10;6.85;;;30.90;99.90;;;;;;4992112;28;20394;-65
2022/05/11 13:43:35;;;;;;;9.60;7.40;;;30.90;99.90;;;;;;4990850;28;20748;-66